Time;durP1;ratioP1;P1;durP2;ratioP2;P2;SDS_P1;SDS_P2;PMS_P1;PMS_P2;Temp;Humidity;BMP_temperature;BMP_pressure;BME280_temperature;BME280_humidity;BME280_pressure;Samples;Min_cycle;Max_cycle;Signal;HPM_P1;HPM_P2
2023/12/23 00:01:58;;;;;;;11.25;2.08;;;6.50;99.90;;;;;;5008480;28;20692;-68
2023/12/23 00:04:24;;;;;;;8.23;1.85;;;6.50;99.90;;;;;;5008506;28;20045;-67
2023/12/23 00:06:51;;;;;;;15.43;2.13;;;6.50;99.90;;;;;;5008201;28;20057;-68
2023/12/23 00:09:18;;;;;;;8.00;1.98;;;6.40;99.90;;;;;;5008782;28;20060;-67
2023/12/23 00:11:44;;;;;;;11.05;2.17;;;6.50;99.90;;;;;;5008220;28;20176;-68
2023/12/23 00:14:11;;;;;;;7.88;2.10;;;6.50;99.90;;;;;;5008620;28;20409;-67
2023/12/23 00:16:37;;;;;;;12.20;2.65;;;6.40;99.90;;;;;;5009283;28;20049;-67
2023/12/23 00:19:03;;;;;;;13.35;2.22;;;6.50;99.90;;;;;;5007999;28;20378;-68
2023/12/23 00:21:33;;;;;;;8.38;1.95;;;6.50;99.90;;;;;;5007563;28;20351;-67
2023/12/23 00:23:59;;;;;;;10.02;2.38;;;6.50;99.90;;;;;;5008014;28;20088;-67
2023/12/23 00:26:25;;;;;;;14.02;2.15;;;6.50;99.90;;;;;;4991885;28;20064;-68
2023/12/23 00:28:52;;;;;;;7.93;2.28;;;6.50;99.90;;;;;;5007944;28;20516;-67
2023/12/23 00:31:19;;;;;;;9.27;1.90;;;6.50;99.90;;;;;;5007623;28;20050;-67
2023/12/23 00:33:47;;;;;;;9.23;1.77;;;6.50;99.90;;;;;;5007831;28;20045;-68
2023/12/23 00:36:14;;;;;;;10.00;2.53;;;6.50;99.90;;;;;;5007724;28;20037;-67
2023/12/23 00:38:40;;;;;;;9.98;2.10;;;6.60;99.90;;;;;;5008002;28;20065;-67
2023/12/23 00:41:06;;;;;;;8.73;1.65;;;6.60;99.90;;;;;;4991408;28;20046;-67
2023/12/23 00:43:33;;;;;;;15.15;2.72;;;6.60;99.90;;;;;;4991577;28;20489;-68
2023/12/23 00:45:59;;;;;;;9.55;1.92;;;6.60;99.90;;;;;;4991062;28;20049;-67
2023/12/23 00:48:25;;;;;;;8.30;1.65;;;6.60;99.90;;;;;;5007529;28;20076;-68
2023/12/23 00:50:51;;;;;;;6.78;1.50;;;6.60;99.90;;;;;;5007308;28;20053;-67
2023/12/23 00:53:18;;;;;;;10.32;2.08;;;6.60;99.90;;;;;;5007689;28;20137;-67
2023/12/23 00:55:44;;;;;;;5.90;1.70;;;6.60;99.90;;;;;;5007237;28;20125;-68
2023/12/23 00:58:12;;;;;;;7.25;1.75;;;6.60;99.90;;;;;;5007739;28;20064;-68
2023/12/23 01:00:39;;;;;;;7.57;1.30;;;6.60;99.90;;;;;;4991993;28;20465;-67
2023/12/23 01:03:05;;;;;;;8.82;1.92;;;6.60;99.90;;;;;;4997438;28;20060;-67
2023/12/23 01:05:31;;;;;;;5.57;1.80;;;6.60;99.90;;;;;;5030326;28;20358;-67
2023/12/23 01:07:58;;;;;;;7.15;1.60;;;6.60;99.90;;;;;;5013946;28;20060;-66
2023/12/23 01:10:26;;;;;;;8.55;1.98;;;6.60;99.90;;;;;;5030057;28;20126;-68
2023/12/23 01:12:53;;;;;;;10.27;2.67;;;6.60;99.90;;;;;;4997718;28;20050;-67
2023/12/23 01:15:21;;;;;;;10.70;3.05;;;6.60;99.90;;;;;;5014163;28;20137;-68
2023/12/23 01:17:47;;;;;;;3.88;1.77;;;6.60;99.90;;;;;;5015503;28;20058;-68
2023/12/23 01:20:13;;;;;;;7.93;2.05;;;6.50;99.90;;;;;;4997824;28;20084;-67
2023/12/23 01:22:40;;;;;;;9.30;1.90;;;6.50;99.90;;;;;;5015625;28;20054;-67
2023/12/23 01:25:11;;;;;;;10.07;1.98;;;6.60;99.90;;;;;;5014142;28;20057;-67
2023/12/23 01:27:38;;;;;;;5.18;1.70;;;6.60;99.90;;;;;;5015208;28;20052;-68
2023/12/23 01:30:05;;;;;;;9.70;2.00;;;6.60;99.90;;;;;;5014675;28;20053;-68
2023/12/23 01:32:31;;;;;;;9.65;1.80;;;6.60;99.90;;;;;;5014026;28;20060;-67
2023/12/23 01:34:58;;;;;;;8.07;1.52;;;6.60;99.90;;;;;;5015312;28;20057;-67
2023/12/23 01:37:24;;;;;;;8.57;1.52;;;6.60;99.90;;;;;;5013915;28;20057;-68
2023/12/23 01:39:50;;;;;;;7.38;2.20;;;6.60;99.90;;;;;;5014358;28;20694;-69
2023/12/23 01:42:17;;;;;;;6.93;1.80;;;6.60;99.90;;;;;;5014097;28;20058;-68
2023/12/23 01:44:43;;;;;;;8.60;1.98;;;6.70;99.90;;;;;;5013692;28;20458;-67
2023/12/23 01:47:09;;;;;;;12.82;1.90;;;6.70;99.90;;;;;;5013792;28;20436;-68
2023/12/23 01:49:37;;;;;;;6.57;2.15;;;6.60;99.90;;;;;;5013423;28;20061;-68
2023/12/23 01:52:04;;;;;;;12.43;2.35;;;6.60;99.90;;;;;;5013735;28;20049;-68
2023/12/23 01:54:30;;;;;;;9.27;1.98;;;6.60;99.90;;;;;;5014867;28;20335;-68
2023/12/23 01:56:58;;;;;;;6.65;1.75;;;6.60;99.90;;;;;;5013146;28;20072;-68
2023/12/23 01:59:25;;;;;;;4.63;1.50;;;6.60;99.90;;;;;;5013763;28;20049;-68
2023/12/23 02:01:52;;;;;;;10.30;1.80;;;6.60;99.90;;;;;;5013400;28;20061;-67
2023/12/23 02:04:19;;;;;;;8.15;2.00;;;6.60;99.90;;;;;;4997174;28;20065;-68
2023/12/23 02:06:46;;;;;;;17.95;2.92;;;6.50;99.90;;;;;;4997154;28;20049;-69
2023/12/23 02:09:13;;;;;;;20.55;3.83;;;6.50;99.90;;;;;;4996982;28;20083;-68
2023/12/23 02:12:02;;;;;;;13.38;3.00;;;6.40;99.90;;;;;;5013367;28;20152;-68
2023/12/23 02:14:36;;;;;;;10.23;2.00;;;6.40;99.90;;;;;;5009563;28;20108;-67
2023/12/23 02:17:02;;;;;;;7.43;1.73;;;6.40;99.90;;;;;;5009974;28;20058;-67
2023/12/23 02:19:29;;;;;;;12.43;2.70;;;6.40;99.90;;;;;;4993382;28;20060;-67
2023/12/23 02:21:55;;;;;;;21.40;5.47;;;6.40;99.90;;;;;;5010143;28;20054;-68
2023/12/23 02:24:22;;;;;;;25.75;4.72;;;6.40;99.90;;;;;;5009727;28;20127;-67
2023/12/23 02:26:53;;;;;;;18.27;2.92;;;6.30;99.90;;;;;;4994418;28;20072;-66
2023/12/23 02:29:21;;;;;;;15.98;3.55;;;6.30;99.90;;;;;;5009438;28;20209;-67
2023/12/23 02:31:48;;;;;;;26.38;5.65;;;6.30;99.90;;;;;;5010238;28;20467;-67
2023/12/23 02:34:14;;;;;;;18.33;4.55;;;6.30;99.90;;;;;;5010190;28;20350;-67
2023/12/23 02:36:46;;;;;;;22.85;4.15;;;6.30;99.90;;;;;;4993224;28;20081;-67
2023/12/23 02:39:12;;;;;;;24.42;4.95;;;6.20;99.90;;;;;;4993025;28;20061;-67
2023/12/23 02:41:40;;;;;;;23.67;4.95;;;6.30;99.90;;;;;;5009883;28;20361;-67
2023/12/23 02:44:06;;;;;;;20.35;4.18;;;6.20;99.90;;;;;;4993502;28;20358;-67
2023/12/23 02:46:32;;;;;;;21.40;5.38;;;6.20;99.90;;;;;;5009601;28;20057;-66
2023/12/23 02:49:00;;;;;;;17.20;4.47;;;6.20;99.90;;;;;;5009216;28;20045;-66
2023/12/23 02:51:26;;;;;;;8.25;2.38;;;6.20;99.90;;;;;;4993648;28;20054;-66
2023/12/23 02:53:52;;;;;;;14.07;4.28;;;6.20;99.90;;;;;;5009420;28;20128;-66
2023/12/23 02:56:19;;;;;;;10.25;2.30;;;6.20;99.90;;;;;;5009022;28;20474;-66
2023/12/23 02:58:46;;;;;;;10.57;3.55;;;6.20;99.90;;;;;;5009319;28;20046;-66
2023/12/23 03:01:13;;;;;;;11.73;4.22;;;6.20;99.90;;;;;;5010259;28;20319;-66
2023/12/23 03:03:39;;;;;;;9.95;2.95;;;6.20;99.90;;;;;;5009483;28;20042;-66
2023/12/23 03:06:05;;;;;;;14.07;3.03;;;6.10;99.90;;;;;;5010323;28;20058;-67
2023/12/23 03:08:31;;;;;;;23.70;6.45;;;6.10;99.90;;;;;;5010532;28;20046;-67
2023/12/23 03:10:58;;;;;;;18.63;6.15;;;6.10;99.90;;;;;;5009946;28;20446;-66
2023/12/23 03:13:24;;;;;;;14.77;3.50;;;6.20;99.90;;;;;;5009352;28;20053;-67
2023/12/23 03:15:50;;;;;;;16.42;4.20;;;6.20;99.90;;;;;;5009140;28;20050;-66
2023/12/23 03:18:17;;;;;;;20.75;5.13;;;6.20;99.90;;;;;;5009019;28;20449;-66
2023/12/23 03:20:43;;;;;;;12.32;2.92;;;6.20;99.90;;;;;;5008647;28;20068;-67
2023/12/23 03:23:09;;;;;;;9.88;2.83;;;6.20;99.90;;;;;;5009211;28;20065;-67
2023/12/23 03:25:36;;;;;;;9.27;3.47;;;6.20;99.90;;;;;;5008991;28;20072;-67
2023/12/23 03:28:02;;;;;;;9.63;2.63;;;6.20;99.90;;;;;;5009115;28;20084;-66
2023/12/23 03:30:29;;;;;;;7.25;2.30;;;6.20;99.90;;;;;;5008644;28;20046;-67
2023/12/23 03:32:55;;;;;;;9.55;3.47;;;6.20;99.90;;;;;;5009721;28;20038;-67
2023/12/23 03:35:22;;;;;;;12.38;3.78;;;6.20;99.90;;;;;;4992971;28;20049;-67
2023/12/23 03:37:48;;;;;;;8.75;1.83;;;6.20;99.90;;;;;;5008682;28;20049;-67
2023/12/23 03:40:15;;;;;;;3.35;1.10;;;6.20;99.90;;;;;;5008410;28;20054;-67
2023/12/23 03:42:41;;;;;;;4.28;1.98;;;6.20;99.90;;;;;;5009113;28;20046;-67
2023/12/23 03:45:08;;;;;;;9.23;2.67;;;6.20;99.90;;;;;;5009072;28;20050;-67
2023/12/23 03:47:34;;;;;;;7.45;2.33;;;6.20;99.90;;;;;;5008702;28;20053;-67
2023/12/23 03:50:04;;;;;;;5.28;1.80;;;6.20;99.90;;;;;;5008516;28;20046;-67
2023/12/23 03:52:30;;;;;;;3.78;1.55;;;6.20;99.90;;;;;;5010047;28;20072;-67
2023/12/23 03:54:56;;;;;;;5.03;0.95;;;6.20;99.90;;;;;;5008618;28;20058;-68
2023/12/23 03:57:22;;;;;;;4.50;1.40;;;6.20;99.90;;;;;;5008368;28;20050;-68
2023/12/23 03:59:49;;;;;;;5.00;1.08;;;6.20;99.90;;;;;;5008469;28;20393;-67
2023/12/23 04:02:15;;;;;;;3.92;1.23;;;6.20;99.90;;;;;;5008876;28;20060;-67
2023/12/23 04:04:41;;;;;;;6.00;1.65;;;6.20;99.90;;;;;;5008870;28;20050;-67
2023/12/23 04:07:08;;;;;;;2.95;1.02;;;6.10;99.90;;;;;;5008147;28;20050;-68
2023/12/23 04:09:37;;;;;;;4.70;1.60;;;6.10;99.90;;;;;;4991745;28;20080;-68
2023/12/23 04:12:04;;;;;;;2.22;0.90;;;6.20;99.90;;;;;;5009408;28;20053;-67
2023/12/23 04:14:31;;;;;;;2.45;1.10;;;6.10;99.90;;;;;;5009524;28;20450;-66
2023/12/23 04:16:57;;;;;;;2.42;1.23;;;6.10;99.90;;;;;;5009577;28;20038;-67
2023/12/23 04:19:23;;;;;;;3.00;1.10;;;6.10;99.90;;;;;;5009042;28;20062;-68
2023/12/23 04:21:50;;;;;;;2.17;1.10;;;6.10;99.90;;;;;;5008397;28;20050;-68
2023/12/23 04:24:19;;;;;;;1.92;1.10;;;6.10;99.90;;;;;;4992035;28;20133;-68
2023/12/23 04:26:46;;;;;;;2.20;1.20;;;6.20;99.90;;;;;;4991956;28;20084;-67
2023/12/23 04:29:13;;;;;;;3.20;1.17;;;6.20;99.90;;;;;;5007845;28;20046;-68
2023/12/23 04:31:40;;;;;;;2.80;1.30;;;6.20;99.90;;;;;;5009492;28;20060;-67
2023/12/23 04:34:07;;;;;;;3.25;1.50;;;6.20;99.90;;;;;;5009365;28;20072;-67
2023/12/23 04:36:33;;;;;;;4.50;1.80;;;6.30;99.90;;;;;;5003997;28;20503;-67
2023/12/23 04:39:03;;;;;;;7.30;2.78;;;6.40;99.90;;;;;;4989450;28;20371;-68
2023/12/23 04:41:30;;;;;;;5.47;2.20;;;6.50;99.90;;;;;;4988668;28;20069;-67
2023/12/23 04:43:57;;;;;;;6.85;2.28;;;6.90;99.90;;;;;;4988906;28;20387;-66
2023/12/23 04:46:23;;;;;;;7.85;2.88;;;7.10;99.90;;;;;;4996116;28;20050;-68
2023/12/23 04:48:50;;;;;;;7.40;2.75;;;7.50;99.90;;;;;;5007745;28;20056;-68
2023/12/23 04:51:16;;;;;;;7.95;3.00;;;7.70;99.90;;;;;;5007742;28;20049;-67
2023/12/23 04:53:43;;;;;;;9.32;2.47;;;7.80;99.90;;;;;;5008291;28;20092;-67
2023/12/23 04:56:09;;;;;;;12.15;3.33;;;7.80;99.90;;;;;;5001538;28;20046;-66
2023/12/23 04:58:36;;;;;;;8.57;3.67;;;8.00;99.90;;;;;;5002308;28;20068;-67
2023/12/23 05:01:02;;;;;;;13.07;3.75;;;8.00;99.90;;;;;;5007242;28;20124;-67
2023/12/23 05:03:33;;;;;;;8.63;2.85;;;8.00;99.90;;;;;;5008118;28;20054;-66
2023/12/23 05:06:01;;;;;;;13.60;3.88;;;8.10;99.90;;;;;;5007282;28;20145;-66
2023/12/23 05:08:27;;;;;;;10.50;3.72;;;8.10;99.90;;;;;;4991827;28;20053;-66
2023/12/23 05:10:54;;;;;;;14.15;3.38;;;8.20;99.90;;;;;;4990764;28;20065;-67
2023/12/23 05:13:20;;;;;;;14.85;4.20;;;8.10;99.90;;;;;;4991291;28;20468;-67
2023/12/23 05:15:46;;;;;;;10.93;3.55;;;8.20;99.90;;;;;;5023928;28;20578;-67
2023/12/23 05:18:13;;;;;;;10.55;3.17;;;8.10;99.90;;;;;;4991547;28;20050;-66
2023/12/23 05:20:39;;;;;;;7.90;3.05;;;8.30;99.90;;;;;;5007152;28;20462;-66
2023/12/23 05:23:05;;;;;;;12.63;3.33;;;8.10;99.90;;;;;;4991202;28;20289;-67
2023/12/23 05:25:32;;;;;;;10.75;2.85;;;8.30;99.90;;;;;;5007437;28;20453;-67
2023/12/23 05:27:58;;;;;;;13.88;3.53;;;8.30;99.90;;;;;;5007736;28;20050;-67
2023/12/23 05:30:28;;;;;;;12.93;4.00;;;8.30;99.90;;;;;;5006889;28;20054;-67
2023/12/23 05:32:54;;;;;;;11.18;4.05;;;8.30;99.90;;;;;;5007801;28;20365;-67
2023/12/23 05:35:20;;;;;;;10.18;3.70;;;8.40;99.90;;;;;;5008774;28;20060;-66
2023/12/23 05:37:47;;;;;;;11.13;2.92;;;8.40;99.90;;;;;;5007096;28;20058;-67
2023/12/23 05:40:14;;;;;;;11.07;3.20;;;8.20;99.90;;;;;;5006750;28;20386;-67
2023/12/23 05:42:40;;;;;;;10.00;3.30;;;8.20;99.90;;;;;;5007204;28;20064;-67
2023/12/23 05:45:07;;;;;;;13.75;3.38;;;8.30;99.90;;;;;;5007038;28;20057;-67
2023/12/23 05:47:33;;;;;;;11.00;3.25;;;8.30;99.90;;;;;;5007093;28;20418;-67
2023/12/23 05:50:00;;;;;;;9.82;3.00;;;8.40;99.90;;;;;;5026375;28;20046;-67
2023/12/23 05:52:26;;;;;;;10.98;3.47;;;8.40;99.90;;;;;;5012007;28;20065;-67
2023/12/23 05:54:52;;;;;;;12.57;3.67;;;8.50;99.90;;;;;;5008685;28;20046;-68
2023/12/23 05:57:20;;;;;;;13.07;4.45;;;8.50;99.90;;;;;;5005296;28;20086;-68
2023/12/23 05:59:46;;;;;;;12.00;3.10;;;8.50;99.90;;;;;;5010452;28;20377;-67
2023/12/23 06:02:13;;;;;;;14.90;3.90;;;8.40;99.90;;;;;;5011780;28;20049;-67
2023/12/23 06:04:39;;;;;;;14.55;4.38;;;8.50;99.90;;;;;;5010914;28;20374;-67
2023/12/23 06:07:05;;;;;;;14.85;4.55;;;8.60;99.90;;;;;;5010220;28;20062;-67
2023/12/23 06:09:31;;;;;;;14.70;4.03;;;8.60;99.90;;;;;;5010109;28;20041;-67
2023/12/23 06:11:59;;;;;;;17.75;3.83;;;8.60;99.90;;;;;;5010339;28;20045;-67
2023/12/23 06:14:25;;;;;;;15.25;4.20;;;8.50;99.90;;;;;;5010655;28;20080;-67
2023/12/23 06:16:51;;;;;;;14.25;3.13;;;8.50;99.90;;;;;;5009853;28;20100;-68
2023/12/23 06:19:19;;;;;;;16.05;3.67;;;8.50;99.90;;;;;;5009901;28;20068;-68
2023/12/23 06:21:46;;;;;;;12.32;3.60;;;8.70;99.90;;;;;;5011499;28;20050;-68
2023/12/23 06:24:13;;;;;;;14.75;3.92;;;8.70;99.90;;;;;;5011332;28;20362;-67
2023/12/23 06:26:39;;;;;;;16.17;4.57;;;8.70;99.90;;;;;;5011220;28;20054;-67
2023/12/23 06:29:09;;;;;;;16.30;3.67;;;8.70;99.90;;;;;;5009576;28;20470;-67
2023/12/23 06:31:35;;;;;;;13.93;3.20;;;8.70;99.90;;;;;;4993655;28;20049;-67
2023/12/23 06:34:02;;;;;;;14.07;3.70;;;8.80;99.90;;;;;;5010213;28;20049;-67
2023/12/23 06:36:29;;;;;;;12.18;3.40;;;8.90;99.90;;;;;;5009693;28;20050;-67
2023/12/23 06:38:57;;;;;;;15.60;4.05;;;8.70;99.90;;;;;;4993513;28;20041;-67
2023/12/23 06:41:23;;;;;;;11.02;3.25;;;8.90;99.90;;;;;;4994036;28;20058;-68
2023/12/23 06:43:50;;;;;;;13.15;3.80;;;8.90;99.90;;;;;;5010173;28;20096;-67
2023/12/23 06:46:17;;;;;;;11.85;3.33;;;8.90;99.90;;;;;;5009477;28;20056;-67
2023/12/23 06:48:43;;;;;;;22.88;3.80;;;8.90;99.90;;;;;;5009241;28;20459;-67
2023/12/23 06:51:11;;;;;;;10.65;3.58;;;9.00;99.90;;;;;;5009500;28;20584;-67
2023/12/23 06:53:37;;;;;;;16.45;4.07;;;8.90;99.90;;;;;;5010696;28;20140;-67
2023/12/23 06:56:06;;;;;;;10.55;3.30;;;8.90;99.90;;;;;;5008279;28;20053;-66
2023/12/23 06:58:32;;;;;;;14.88;3.92;;;8.90;99.90;;;;;;5007121;28;20258;-67
2023/12/23 07:00:59;;;;;;;13.98;4.30;;;8.90;99.90;;;;;;5008948;28;20045;-67
2023/12/23 07:03:25;;;;;;;13.25;3.53;;;9.00;99.90;;;;;;5009240;28;20045;-67
2023/12/23 07:05:51;;;;;;;13.40;3.45;;;9.00;99.90;;;;;;5009518;28;20462;-67
2023/12/23 07:08:19;;;;;;;12.43;3.60;;;9.00;99.90;;;;;;5006657;28;20061;-67
2023/12/23 07:10:46;;;;;;;17.73;3.95;;;9.10;99.90;;;;;;5008354;28;20057;-67
2023/12/23 07:13:12;;;;;;;14.68;3.85;;;9.10;99.90;;;;;;5010631;28;20065;-67
2023/12/23 07:15:38;;;;;;;16.15;3.80;;;9.00;99.90;;;;;;5011301;28;20049;-67
2023/12/23 07:18:06;;;;;;;15.52;3.38;;;9.00;99.90;;;;;;5010491;28;20046;-66
2023/12/23 07:20:33;;;;;;;12.35;3.25;;;9.10;99.90;;;;;;5008900;28;20343;-66
2023/12/23 07:22:59;;;;;;;14.35;3.28;;;9.10;99.90;;;;;;5009509;28;20050;-66
2023/12/23 07:25:25;;;;;;;14.27;3.20;;;9.20;99.90;;;;;;5009230;28;20057;-66
2023/12/23 07:27:52;;;;;;;22.50;4.55;;;9.20;99.90;;;;;;5008433;28;20129;-66
2023/12/23 07:30:18;;;;;;;13.05;3.20;;;9.10;99.90;;;;;;5008205;28;20056;-66
2023/12/23 07:32:46;;;;;;;11.52;3.65;;;9.20;99.90;;;;;;5008643;28;20046;-66
2023/12/23 07:35:13;;;;;;;17.40;3.67;;;9.30;99.90;;;;;;5008710;28;20046;-66
2023/12/23 07:37:39;;;;;;;15.77;4.13;;;9.20;99.90;;;;;;5008238;28;20053;-67
2023/12/23 07:40:07;;;;;;;14.82;3.50;;;9.20;99.90;;;;;;5008219;28;20120;-66
2023/12/23 07:42:34;;;;;;;12.05;3.47;;;9.20;99.90;;;;;;5008623;28;20050;-66
2023/12/23 07:45:00;;;;;;;15.75;3.20;;;9.30;99.90;;;;;;5008753;28;20054;-66
2023/12/23 07:47:27;;;;;;;12.88;3.53;;;9.20;99.90;;;;;;5009608;28;20392;-67
2023/12/23 07:49:54;;;;;;;11.93;3.53;;;9.20;99.90;;;;;;5007823;28;20458;-67
2023/12/23 07:52:20;;;;;;;19.38;4.20;;;9.20;99.90;;;;;;5007899;28;20321;-67
2023/12/23 07:54:52;;;;;;;16.83;3.97;;;9.30;99.90;;;;;;4991845;28;20085;-67
2023/12/23 07:57:18;;;;;;;11.45;3.30;;;9.40;99.90;;;;;;5008113;28;20049;-67
2023/12/23 07:59:45;;;;;;;19.73;5.43;;;9.40;99.90;;;;;;4991438;28;20502;-63
2023/12/23 08:02:12;;;;;;;16.92;3.45;;;9.30;99.90;;;;;;5008707;28;20125;-65
2023/12/23 08:04:38;;;;;;;15.70;3.60;;;9.40;99.90;;;;;;5009444;28;20049;-62
2023/12/23 08:07:05;;;;;;;16.60;3.67;;;9.40;99.90;;;;;;5000395;28;20057;-65
2023/12/23 08:09:31;;;;;;;14.90;3.75;;;9.40;99.90;;;;;;4998703;28;20056;-63
2023/12/23 08:11:57;;;;;;;14.02;3.08;;;9.40;99.90;;;;;;5001288;28;20509;-64
2023/12/23 08:14:24;;;;;;;16.55;3.20;;;9.40;99.90;;;;;;5008189;28;20065;-63
2023/12/23 08:16:50;;;;;;;15.98;3.53;;;9.40;99.90;;;;;;5009208;28;20076;-64
2023/12/23 08:19:17;;;;;;;12.32;3.85;;;9.50;99.90;;;;;;5009269;28;20053;-63
2023/12/23 08:21:44;;;;;;;13.27;2.70;;;9.50;99.90;;;;;;5009403;28;20076;-63
2023/12/23 08:24:11;;;;;;;13.52;3.13;;;9.60;99.90;;;;;;5007900;28;20069;-63
2023/12/23 08:26:37;;;;;;;9.85;2.85;;;9.60;99.90;;;;;;4991330;28;20485;-63
2023/12/23 08:29:06;;;;;;;14.23;2.92;;;9.60;99.90;;;;;;5009081;28;20077;-63
2023/12/23 08:31:33;;;;;;;11.18;2.53;;;9.70;99.90;;;;;;5007715;28;20050;-67
2023/12/23 08:34:01;;;;;;;16.55;3.53;;;9.80;99.90;;;;;;5009144;28;20049;-64
2023/12/23 08:36:27;;;;;;;11.88;3.45;;;9.70;99.90;;;;;;5007592;28;20050;-63
2023/12/23 08:38:54;;;;;;;13.77;3.72;;;9.80;99.90;;;;;;5007850;28;20053;-64
2023/12/23 08:41:20;;;;;;;14.57;4.03;;;9.80;99.90;;;;;;5008472;28;20068;-64
2023/12/23 08:43:46;;;;;;;11.63;3.50;;;9.80;99.90;;;;;;5007927;28;20053;-62
2023/12/23 08:46:13;;;;;;;13.63;3.75;;;9.70;99.90;;;;;;5007406;28;20049;-63
2023/12/23 08:48:39;;;;;;;17.02;3.55;;;9.70;99.90;;;;;;5007274;28;20057;-62
2023/12/23 08:51:07;;;;;;;16.30;3.72;;;9.60;99.90;;;;;;5023837;28;20045;-63
2023/12/23 08:53:34;;;;;;;14.73;3.85;;;9.50;99.90;;;;;;5008788;28;20054;-64
2023/12/23 08:56:01;;;;;;;13.38;3.67;;;9.40;99.90;;;;;;5008061;28;20486;-63
2023/12/23 08:58:27;;;;;;;15.57;4.97;;;9.30;99.90;;;;;;5008278;28;20462;-64
2023/12/23 09:00:53;;;;;;;13.30;3.42;;;9.30;99.90;;;;;;5008957;28;20633;-61
2023/12/23 09:03:20;;;;;;;16.75;4.10;;;9.10;99.90;;;;;;5008813;28;20156;-63
2023/12/23 09:05:46;;;;;;;17.60;4.13;;;9.20;99.90;;;;;;5006872;28;20057;-63
2023/12/23 09:08:13;;;;;;;12.75;2.92;;;9.10;99.90;;;;;;5008377;28;20058;-63
2023/12/23 09:10:39;;;;;;;14.38;4.00;;;9.00;99.90;;;;;;5008396;28;20050;-63
2023/12/23 09:13:06;;;;;;;16.70;3.53;;;9.10;99.90;;;;;;5008821;28;20050;-63
2023/12/23 09:15:33;;;;;;;16.35;3.65;;;9.10;99.90;;;;;;5007468;28;20057;-63
2023/12/23 09:17:59;;;;;;;12.48;2.88;;;9.10;99.90;;;;;;5006895;28;20049;-63
2023/12/23 09:20:28;;;;;;;16.50;3.10;;;9.10;99.90;;;;;;5007122;28;20065;-63
2023/12/23 09:22:55;;;;;;;13.70;3.70;;;9.10;99.90;;;;;;5009638;28;20077;-64
2023/12/23 09:25:21;;;;;;;12.43;2.75;;;9.20;99.90;;;;;;5011219;28;20059;-63
2023/12/23 09:27:48;;;;;;;14.63;2.95;;;9.30;99.90;;;;;;4994269;28;20060;-64
2023/12/23 09:30:15;;;;;;;10.95;3.35;;;9.40;99.90;;;;;;5012018;28;20061;-64
2023/12/23 09:32:41;;;;;;;12.70;3.00;;;9.50;99.90;;;;;;5010724;28;20574;-63
2023/12/23 09:35:08;;;;;;;12.07;2.97;;;9.50;99.90;;;;;;5011002;28;20072;-61
2023/12/23 09:37:34;;;;;;;12.63;2.70;;;9.50;99.90;;;;;;5010184;28;20533;-64
2023/12/23 09:40:01;;;;;;;10.27;2.90;;;9.50;99.90;;;;;;5011490;28;20065;-63
2023/12/23 09:42:28;;;;;;;14.05;3.55;;;9.50;99.90;;;;;;5010996;28;20045;-65
2023/12/23 09:44:55;;;;;;;10.57;3.00;;;9.50;99.90;;;;;;5010789;28;20129;-64
2023/12/23 09:47:21;;;;;;;13.25;3.35;;;9.50;99.90;;;;;;5010856;28;20152;-62
2023/12/23 09:49:47;;;;;;;17.90;3.42;;;9.50;99.90;;;;;;5009515;28;20056;-64
2023/12/23 09:52:14;;;;;;;14.48;3.20;;;9.50;99.90;;;;;;5010256;28;20049;-64
2023/12/23 09:54:50;;;;;;;17.00;3.92;;;9.50;99.90;;;;;;5010678;28;20042;-63
2023/12/23 09:57:18;;;;;;;15.98;3.22;;;9.50;99.90;;;;;;5011048;28;20428;-63
2023/12/23 09:59:44;;;;;;;13.95;3.42;;;9.50;99.90;;;;;;4993890;28;20085;-62
2023/12/23 10:02:10;;;;;;;17.95;3.15;;;9.60;99.90;;;;;;5010473;28;20354;-62
2023/12/23 10:04:37;;;;;;;14.10;3.25;;;9.50;99.90;;;;;;5011613;28;20049;-62
2023/12/23 10:07:03;;;;;;;11.15;3.10;;;9.50;99.90;;;;;;5009714;28;20058;-63
2023/12/23 10:09:32;;;;;;;12.52;2.83;;;9.60;99.90;;;;;;4993873;28;20049;-64
2023/12/23 10:12:01;;;;;;;15.57;3.13;;;9.60;99.90;;;;;;5011537;28;20205;-62
2023/12/23 10:14:30;;;;;;;10.82;3.05;;;9.60;99.90;;;;;;5011391;28;20041;-62
2023/12/23 10:16:56;;;;;;;11.93;2.80;;;9.60;99.90;;;;;;5009808;28;20065;-62
2023/12/23 10:19:24;;;;;;;13.98;2.83;;;9.60;99.90;;;;;;5009959;28;20336;-62
2023/12/23 10:21:51;;;;;;;14.23;3.03;;;9.60;99.90;;;;;;5009565;28;20049;-63
2023/12/23 10:24:17;;;;;;;13.15;3.03;;;9.60;99.90;;;;;;5011085;28;20049;-63
2023/12/23 10:26:45;;;;;;;17.17;3.55;;;9.60;99.90;;;;;;5011059;28;20069;-64
2023/12/23 10:29:16;;;;;;;15.30;3.00;;;9.50;99.90;;;;;;5009815;28;20068;-62
2023/12/23 10:31:54;;;;;;;14.73;2.97;;;9.50;99.90;;;;;;5011074;28;20060;-63
2023/12/23 10:34:23;;;;;;;13.73;3.33;;;9.60;99.90;;;;;;5010164;28;20065;-62
2023/12/23 10:36:51;;;;;;;14.52;3.72;;;9.60;99.90;;;;;;5009267;28;20046;-62
2023/12/23 10:39:25;;;;;;;12.35;2.95;;;9.60;99.90;;;;;;5010375;28;20058;-62
2023/12/23 10:42:03;;;;;;;11.57;2.60;;;9.70;99.90;;;;;;4993879;28;20077;-63
2023/12/23 10:44:31;;;;;;;11.23;2.63;;;9.70;99.90;;;;;;5009672;28;20058;-61
2023/12/23 10:47:01;;;;;;;11.55;2.70;;;9.80;99.90;;;;;;5009364;28;20054;-63
2023/12/23 10:49:29;;;;;;;16.90;3.05;;;9.80;99.90;;;;;;4993100;28;20430;-61
2023/12/23 10:51:59;;;;;;;10.70;2.97;;;9.80;99.90;;;;;;5009250;28;20088;-62
2023/12/23 10:54:27;;;;;;;13.18;3.10;;;9.80;99.90;;;;;;5010608;28;20050;-63
2023/12/23 10:56:56;;;;;;;11.32;2.83;;;9.80;99.90;;;;;;4992465;28;20057;-61
2023/12/23 10:59:23;;;;;;;11.65;2.70;;;9.90;99.90;;;;;;5010278;28;20057;-63
2023/12/23 11:01:49;;;;;;;13.80;2.78;;;9.80;99.90;;;;;;5009532;28;20378;-63
2023/12/23 11:04:15;;;;;;;13.27;3.05;;;9.90;99.90;;;;;;4993357;28;20042;-63
2023/12/23 11:06:45;;;;;;;14.30;3.08;;;9.80;99.90;;;;;;5010365;28;20078;-63
2023/12/23 11:09:14;;;;;;;11.35;3.08;;;9.80;99.90;;;;;;5010113;28;20054;-62
2023/12/23 11:11:42;;;;;;;10.70;2.88;;;9.80;99.90;;;;;;5010315;28;20343;-63
2023/12/23 11:14:09;;;;;;;13.88;2.95;;;9.80;99.90;;;;;;5008985;28;20493;-62
2023/12/23 11:16:39;;;;;;;12.52;3.28;;;9.90;99.90;;;;;;5009051;28;20046;-62
2023/12/23 11:19:06;;;;;;;16.23;3.40;;;9.90;99.90;;;;;;4992195;28;20367;-62
2023/12/23 11:21:34;;;;;;;13.30;3.00;;;9.90;99.90;;;;;;5008981;28;20064;-62
2023/12/23 11:24:02;;;;;;;10.57;2.28;;;9.90;99.90;;;;;;5008624;28;20466;-62
2023/12/23 11:26:39;;;;;;;15.90;3.08;;;9.90;99.90;;;;;;5009784;28;20064;-63
2023/12/23 11:29:12;;;;;;;14.50;3.33;;;9.90;99.90;;;;;;5009587;28;20065;-62
2023/12/23 11:31:39;;;;;;;12.32;2.85;;;9.90;99.90;;;;;;4992253;28;20374;-63
2023/12/23 11:34:16;;;;;;;12.90;2.90;;;10.00;99.90;;;;;;4992329;28;20046;-63
2023/12/23 11:36:43;;;;;;;15.68;3.72;;;10.00;99.90;;;;;;5009527;28;20061;-62
2023/12/23 11:39:13;;;;;;;12.45;3.10;;;10.00;99.90;;;;;;5009701;28;20045;-63
2023/12/23 11:41:42;;;;;;;14.38;2.92;;;10.00;99.90;;;;;;5010001;28;20137;-62
2023/12/23 11:44:11;;;;;;;13.75;3.13;;;10.00;99.90;;;;;;5008115;28;20482;-64
2023/12/23 11:46:39;;;;;;;14.18;3.05;;;10.10;99.90;;;;;;5009641;28;20132;-62
2023/12/23 11:49:12;;;;;;;13.88;3.30;;;10.00;99.90;;;;;;5008224;28;20403;-63
2023/12/23 11:51:39;;;;;;;14.32;3.10;;;10.20;99.90;;;;;;5009697;28;20049;-63
2023/12/23 11:54:07;;;;;;;23.63;3.92;;;10.10;99.90;;;;;;4992095;28;20069;-63
2023/12/23 11:56:35;;;;;;;13.00;3.05;;;10.10;99.90;;;;;;5007736;28;20467;-62
2023/12/23 11:59:02;;;;;;;14.30;3.15;;;10.10;99.90;;;;;;4991413;28;20057;-63
2023/12/23 12:01:35;;;;;;;11.82;3.00;;;10.10;99.90;;;;;;5009574;28;20053;-63
2023/12/23 12:04:01;;;;;;;11.32;3.63;;;10.10;99.90;;;;;;5009422;28;20065;-63
2023/12/23 12:06:29;;;;;;;13.40;3.05;;;10.10;99.90;;;;;;5008153;28;20133;-62
2023/12/23 12:08:56;;;;;;;13.70;3.65;;;10.10;99.90;;;;;;5009270;28;20061;-63
2023/12/23 12:11:26;;;;;;;13.13;3.30;;;10.10;99.90;;;;;;4991807;28;20133;-63
2023/12/23 12:13:58;;;;;;;14.50;2.65;;;10.10;99.90;;;;;;5008151;28;20042;-63
2023/12/23 12:16:25;;;;;;;15.45;3.42;;;10.20;99.90;;;;;;5009099;28;20137;-63
2023/12/23 12:18:51;;;;;;;14.32;3.30;;;10.20;99.90;;;;;;5008651;28;20050;-61
2023/12/23 12:21:17;;;;;;;13.00;2.70;;;10.20;99.90;;;;;;5008974;28;20062;-63
2023/12/23 12:23:44;;;;;;;12.60;3.15;;;10.20;99.90;;;;;;5008857;28;20085;-63
2023/12/23 12:26:10;;;;;;;14.75;3.65;;;10.20;99.90;;;;;;5008843;28;20085;-64
2023/12/23 12:28:37;;;;;;;14.43;3.00;;;10.10;99.90;;;;;;5008402;28;20065;-63
2023/12/23 12:31:07;;;;;;;12.30;2.63;;;10.20;99.90;;;;;;5008932;28;20046;-62
2023/12/23 12:33:35;;;;;;;11.45;3.13;;;10.20;99.90;;;;;;4991450;28;20370;-62
2023/12/23 12:36:03;;;;;;;8.70;2.97;;;10.10;99.90;;;;;;5006917;28;20050;-63
2023/12/23 12:38:29;;;;;;;12.10;2.63;;;10.10;99.90;;;;;;5008034;28;20080;-63
2023/12/23 12:40:57;;;;;;;13.80;3.30;;;10.20;99.90;;;;;;5007569;28;20058;-63
2023/12/23 12:43:29;;;;;;;10.65;2.60;;;10.20;99.90;;;;;;5008523;28;20050;-63
2023/12/23 12:45:56;;;;;;;14.85;3.17;;;10.30;99.90;;;;;;5007822;28;20060;-63
2023/12/23 12:48:22;;;;;;;11.18;2.72;;;10.30;99.90;;;;;;5007314;28;20050;-64